Time;durP1;ratioP1;P1;durP2;ratioP2;P2;SDS_P1;SDS_P2;PMS_P1;PMS_P2;Temp;Humidity;BMP_temperature;BMP_pressure;BME280_temperature;BME280_humidity;BME280_pressure;Samples;Min_cycle;Max_cycle;Signal;HPM_P1;HPM_P2
2022/01/05 00:01:26;;;;;;;17.63;3.35;;;;;;;1.69;93.21;99918.63;6218020;23;20057;-87
2022/01/05 00:03:52;;;;;;;15.40;2.60;;;;;;;1.83;93.44;99945.59;6218153;23;20684;-86
2022/01/05 00:06:18;;;;;;;17.08;2.65;;;;;;;2.05;94.60;99990.22;6217707;23;20004;-87
2022/01/05 00:08:43;;;;;;;14.63;2.60;;;;;;;2.02;94.31;99992.41;6218274;23;20004;-87
2022/01/05 00:11:10;;;;;;;14.63;2.85;;;;;;;2.04;93.72;99999.25;6218059;23;20019;-87
2022/01/05 00:13:36;;;;;;;18.15;3.40;;;;;;;1.68;94.33;99945.53;6168774;23;20436;-86
2022/01/05 00:16:01;;;;;;;12.65;2.60;;;;;;;1.29;93.54;99893.88;6217886;23;20007;-87
2022/01/05 00:18:31;;;;;;;22.45;3.95;;;;;;;1.54;94.59;99937.28;6192949;23;20388;-86
2022/01/05 00:20:57;;;;;;;12.73;3.05;;;;;;;1.58;93.98;99951.16;6193663;23;20420;-86
2022/01/05 00:23:26;;;;;;;13.05;2.85;;;;;;;1.30;93.67;99895.53;6217792;23;20004;-86
2022/01/05 00:25:51;;;;;;;11.55;2.65;;;;;;;1.39;94.75;99923.06;6192884;23;20004;-87
2022/01/05 00:28:20;;;;;;;14.85;2.83;;;;;;;1.78;94.67;99994.28;6218095;23;20012;-87
2022/01/05 00:30:45;;;;;;;11.55;2.40;;;;;;;1.45;95.04;99945.53;6217599;23;20020;-87
2022/01/05 00:33:20;;;;;;;14.90;2.40;;;;;;;1.68;95.50;99996.34;6217905;23;20134;-87
2022/01/05 00:35:45;;;;;;;15.57;3.08;;;;;;;1.63;94.85;100004.91;6217851;23;20036;-86
2022/01/05 00:38:11;;;;;;;10.57;2.45;;;;;;;1.37;94.48;99955.31;6193135;23;20085;-87
2022/01/05 00:40:37;;;;;;;17.65;3.22;;;;;;;0.88;94.63;99884.28;6244552;23;20004;-86
2022/01/05 00:43:02;;;;;;;11.00;2.80;;;;;;;0.97;95.19;99911.78;6218199;23;20034;-87
2022/01/05 00:45:28;;;;;;;14.43;2.58;;;;;;;1.40;95.21;99999.53;6218161;23;20000;-87
2022/01/05 00:47:53;;;;;;;15.23;2.70;;;;;;;1.40;94.63;100002.22;6244753;23;20004;-88
2022/01/05 00:50:19;;;;;;;18.77;3.15;;;;;;;0.86;94.74;99922.88;6244810;23;20080;-87
2022/01/05 00:52:44;;;;;;;14.80;2.70;;;;;;;0.78;94.35;99913.03;6192994;23;20008;-87
2022/01/05 00:55:10;;;;;;;13.98;3.08;;;;;;;0.63;94.77;99896.09;6166729;23;20013;-86
2022/01/05 00:57:35;;;;;;;13.00;2.90;;;;;;;0.73;94.95;99925.28;6217492;23;20061;-86
2022/01/05 01:00:02;;;;;;;17.20;3.38;;;;;;;1.01;94.72;99987.88;6192736;23;20347;-87
2022/01/05 01:02:28;;;;;;;19.90;3.50;;;;;;;1.29;94.78;100043.53;6244625;23;20000;-86
2022/01/05 01:04:53;;;;;;;12.38;2.92;;;;;;;0.78;93.97;99961.09;6192593;23;20091;-86
2022/01/05 01:07:19;;;;;;;15.90;3.25;;;;;;;1.10;95.04;100022.59;6217838;23;20082;-86
2022/01/05 01:09:46;;;;;;;13.65;2.97;;;;;;;0.98;95.68;100008.78;6192923;23;20448;-86
2022/01/05 01:12:12;;;;;;;14.52;3.33;;;;;;;1.11;95.57;100027.75;6193047;23;20012;-86
2022/01/05 01:14:37;;;;;;;20.60;3.50;;;;;;;0.70;95.48;99977.16;6192853;23;20008;-86
2022/01/05 01:17:06;;;;;;;15.25;3.30;;;;;;;0.61;95.10;99962.19;6192473;23;20126;-87
2022/01/05 01:19:31;;;;;;;12.05;3.50;;;;;;;0.93;95.66;100028.00;6193413;23;20004;-87
2022/01/05 01:21:58;;;;;;;15.02;3.22;;;;;;;1.02;94.81;100037.66;6195126;23;20008;-87
2022/01/05 01:24:24;;;;;;;16.00;3.38;;;;;;;0.99;95.04;100048.69;6195333;23;20330;-85
2022/01/05 01:26:49;;;;;;;16.60;4.05;;;;;;;1.00;94.98;100054.84;6194874;23;20087;-86
2022/01/05 01:29:18;;;;;;;15.30;3.97;;;;;;;1.01;94.52;100052.00;6219575;23;20011;-86
2022/01/05 01:31:43;;;;;;;16.58;3.40;;;;;;;0.94;95.00;100044.84;6194776;23;20008;-86
2022/01/05 01:34:18;;;;;;;16.83;3.30;;;;;;;0.84;94.97;100039.69;6194142;23;20082;-86
2022/01/05 01:36:43;;;;;;;17.05;3.45;;;;;;;0.85;94.94;100047.53;6246653;23;20008;-86
2022/01/05 01:39:09;;;;;;;13.63;3.33;;;;;;;0.76;95.00;100037.91;6219779;23;20107;-86
2022/01/05 01:41:37;;;;;;;16.98;3.22;;;;;;;0.58;95.16;100015.94;6219442;23;20031;-85
2022/01/05 01:44:02;;;;;;;12.52;2.90;;;;;;;0.82;94.79;100047.06;6246374;23;20000;-86
2022/01/05 01:46:28;;;;;;;16.52;3.55;;;;;;;0.50;93.96;100001.59;6246602;23;20008;-86
2022/01/05 01:48:53;;;;;;;13.07;3.08;;;;;;;0.61;93.61;100011.06;6194232;23;20095;-86
2022/01/05 01:51:19;;;;;;;11.50;2.80;;;;;;;0.50;93.92;99998.06;6219123;23;20047;-86
2022/01/05 01:53:48;;;;;;;17.15;3.22;;;;;;;0.73;92.75;100032.06;6219626;23;20008;-86
2022/01/05 01:56:14;;;;;;;15.75;3.03;;;;;;;0.55;93.61;100010.91;6195795;23;20011;-86
2022/01/05 01:58:39;;;;;;;13.52;3.10;;;;;;;0.26;92.79;99962.44;6219451;23;20015;-86
2022/01/05 02:01:05;;;;;;;13.45;2.92;;;;;;;0.74;92.47;100034.56;6194356;23;20424;-86
2022/01/05 02:03:31;;;;;;;17.85;3.38;;;;;;;0.37;92.25;99987.09;6194327;23;20938;-86
2022/01/05 02:05:56;;;;;;;16.48;2.88;;;;;;;0.26;91.28;99956.28;6246046;23;19996;-87
2022/01/05 02:08:22;;;;;;;15.70;2.97;;;;;;;0.71;91.72;100045.59;6218815;23;20438;-86
2022/01/05 02:10:49;;;;;;;13.38;2.80;;;;;;;0.76;91.65;100045.91;6219221;23;20020;-86
2022/01/05 02:13:19;;;;;;;18.73;3.67;;;;;;;0.74;91.66;100036.38;6194337;23;20012;-86
2022/01/05 02:15:47;;;;;;;13.05;2.70;;;;;;;0.27;91.30;99966.78;6246066;23;20062;-86
2022/01/05 02:20:47;;;;;;;11.27;2.65;;;;;;;0.75;90.85;100052.25;6231428;23;20047;-86
2022/01/05 02:23:13;;;;;;;22.90;3.50;;;;;;;0.04;nan;99926.63;6219335;23;20039;-86
2022/01/05 02:25:39;;;;;;;13.73;2.60;;;;;;;0.04;91.20;99933.81;6193617;23;20009;-86
2022/01/05 02:28:04;;;;;;;13.18;2.70;;;;;;;0.14;91.03;99964.63;6219141;23;20034;-86
2022/01/05 02:30:31;;;;;;;17.42;2.80;;;;;;;-0.08;91.56;99936.00;6218673;23;20020;-86
2022/01/05 02:32:57;;;;;;;15.35;3.33;;;;;;;0.36;91.57;100012.13;6219239;23;20011;-86
2022/01/05 02:35:23;;;;;;;13.95;2.83;;;;;;;0.59;92.17;100058.47;6219001;23;20004;-87
2022/01/05 02:37:51;;;;;;;14.73;3.40;;;;;;;0.56;92.41;100072.16;6194157;23;20011;-87
2022/01/05 02:40:18;;;;;;;16.88;3.15;;;;;;;0.26;92.14;100023.81;6219392;23;20000;-86
2022/01/05 02:42:44;;;;;;;18.65;3.05;;;;;;;0.49;92.49;100066.66;6193509;23;20007;-86
2022/01/05 02:45:12;;;;;;;10.85;2.80;;;;;;;0.46;92.28;100064.31;6218986;23;20000;-86
2022/01/05 02:47:38;;;;;;;13.07;3.20;;;;;;;-0.11;92.60;99976.34;6219277;23;20053;-86
2022/01/05 02:50:06;;;;;;;16.48;3.17;;;;;;;-0.16;93.72;99978.66;6245807;23;20026;-86
2022/01/05 02:52:33;;;;;;;12.43;3.00;;;;;;;0.34;93.61;100076.34;6218889;23;20033;-86
2022/01/05 02:54:58;;;;;;;19.90;3.83;;;;;;;0.27;94.21;100068.16;6218978;23;20008;-86
2022/01/05 02:57:24;;;;;;;9.05;2.80;;;;;;;-0.15;94.20;100020.31;6218812;23;20038;-86
2022/01/05 02:59:50;;;;;;;14.30;2.88;;;;;;;0.15;94.60;100085.53;6193366;23;20008;-86
2022/01/05 03:02:15;;;;;;;12.60;3.00;;;;;;;-0.12;94.27;100047.47;6168932;23;20032;-86
2022/01/05 03:04:44;;;;;;;14.43;3.00;;;;;;;-0.14;94.42;100038.00;6218849;23;20000;-86
2022/01/05 03:07:09;;;;;;;17.45;3.10;;;;;;;-0.17;94.63;100041.00;6219007;23;20019;-86
2022/01/05 03:09:35;;;;;;;15.60;3.20;;;;;;;0.14;94.85;100097.19;6193755;23;20012;-86
2022/01/05 03:12:00;;;;;;;16.52;3.30;;;;;;;0.13;94.67;100090.19;6218717;23;20085;-86
2022/01/05 03:14:26;;;;;;;12.80;2.90;;;;;;;0.13;94.54;100096.38;6168607;23;20366;-86
2022/01/05 03:16:51;;;;;;;20.08;3.50;;;;;;;0.06;94.79;100092.69;6218284;23;20004;-86
2022/01/05 03:19:16;;;;;;;17.33;3.30;;;;;;;-0.21;95.28;100053.81;6218923;23;20004;-86
2022/01/05 03:21:42;;;;;;;21.00;3.35;;;;;;;0.16;95.08;100108.50;6193701;23;20427;-86
2022/01/05 03:24:07;;;;;;;14.48;2.92;;;;;;;0.09;95.05;100108.34;6168889;23;20091;-85
2022/01/05 03:26:33;;;;;;;13.40;3.05;;;;;;;-0.20;94.74;100066.16;6193471;23;20004;-85
2022/01/05 03:28:58;;;;;;;20.30;3.55;;;;;;;-0.20;94.77;100066.97;6218429;23;20018;-86
2022/01/05 03:31:29;;;;;;;15.63;3.17;;;;;;;0.09;94.73;100120.84;6168650;23;20008;-86
2022/01/05 03:33:54;;;;;;;14.55;3.30;;;;;;;-0.32;94.76;100052.31;6169617;23;20440;-86
2022/01/05 03:36:20;;;;;;;14.55;3.10;;;;;;;-0.15;94.44;100070.97;6193405;23;20015;-86
2022/01/05 03:38:45;;;;;;;13.75;3.30;;;;;;;0.15;94.74;100123.69;6218828;23;20308;-86
2022/01/05 03:41:14;;;;;;;16.63;2.92;;;;;;;-0.12;94.03;100087.47;6218577;23;20008;-86
2022/01/05 03:43:45;;;;;;;15.18;3.05;;;;;;;-0.12;93.84;100092.81;6245012;23;20008;-86
2022/01/05 03:46:11;;;;;;;15.50;3.25;;;;;;;-0.32;93.57;100068.28;6193313;23;20004;-85
2022/01/05 03:48:36;;;;;;;11.85;2.85;;;;;;;0.13;93.67;100132.84;6218386;23;20007;-86
2022/01/05 03:51:01;;;;;;;17.85;3.40;;;;;;;0.08;94.02;100130.69;6168428;23;20012;-86
2022/01/05 03:53:27;;;;;;;17.13;3.25;;;;;;;-0.63;93.26;100014.75;6217844;23;20343;-86
2022/01/05 03:55:52;;;;;;;14.20;3.10;;;;;;;0.17;92.94;100131.53;6192716;23;20004;-86
2022/01/05 03:58:21;;;;;;;18.38;4.22;;;;;;;0.31;92.27;100130.03;6168240;23;20343;-86
2022/01/05 04:00:49;;;;;;;10.57;2.60;;;;;;;0.10;91.25;100086.00;6193228;23;20074;-86
2022/01/05 04:03:15;;;;;;;17.77;3.22;;;;;;;0.46;91.22;100128.38;6218168;23;20331;-86
2022/01/05 04:05:41;;;;;;;12.38;2.75;;;;;;;0.43;90.20;100123.38;6193053;23;20008;-86
2022/01/05 04:08:07;;;;;;;14.48;3.08;;;;;;;0.59;90.38;100143.06;6218412;23;20004;-86
2022/01/05 04:10:33;;;;;;;13.23;3.30;;;;;;;0.50;89.70;100121.72;6217764;23;20091;-86
2022/01/05 04:12:59;;;;;;;13.48;3.05;;;;;;;0.17;89.44;100065.66;6218204;23;20007;-86
2022/01/05 04:15:25;;;;;;;15.52;3.10;;;;;;;0.46;89.41;100111.53;6192971;23;20019;-86
2022/01/05 04:17:50;;;;;;;13.77;3.17;;;;;;;0.58;89.69;100138.75;6218199;23;20032;-86
2022/01/05 04:20:21;;;;;;;17.73;3.50;;;;;;;0.16;88.98;100069.34;6218024;23;20038;-86
2022/01/05 04:22:46;;;;;;;18.17;3.72;;;;;;;0.17;89.38;100065.66;6218123;23;20015;-86
2022/01/05 04:25:13;;;;;;;17.67;3.35;;;;;;;0.36;89.29;100093.03;6218199;23;20001;-86
2022/01/05 04:27:39;;;;;;;12.27;2.80;;;;;;;-0.14;89.25;100030.81;6244246;23;20026;-86
2022/01/05 04:30:06;;;;;;;14.90;2.90;;;;;;;0.55;89.77;100152.38;6167924;23;20456;-86
2022/01/05 04:32:32;;;;;;;15.80;3.88;;;;;;;0.49;89.84;100154.75;6218318;23;20095;-86
2022/01/05 04:34:57;;;;;;;14.48;2.80;;;;;;;0.05;90.44;100093.69;6218024;23;20376;-86
2022/01/05 04:37:23;;;;;;;15.68;2.72;;;;;;;0.36;90.25;100138.38;6218484;23;20015;-86
2022/01/05 04:39:50;;;;;;;18.13;3.28;;;;;;;0.36;90.55;100135.72;6244700;23;20004;-86
2022/01/05 04:42:16;;;;;;;14.13;2.97;;;;;;;0.53;90.38;100160.56;6192867;23;20015;-86
2022/01/05 04:44:41;;;;;;;17.75;3.72;;;;;;;0.27;91.15;100126.06;6192383;23;20008;-85
2022/01/05 04:47:08;;;;;;;12.73;2.95;;;;;;;-0.20;90.87;100066.97;6244702;23;20027;-85
2022/01/05 04:49:34;;;;;;;20.15;4.10;;;;;;;0.32;91.37;100137.03;6217709;23;20007;-85
2022/01/05 04:51:59;;;;;;;17.90;3.78;;;;;;;0.41;90.97;100137.88;6244548;23;20008;-85
2022/01/05 04:54:28;;;;;;;17.13;3.55;;;;;;;0.49;90.93;100144.06;6217343;23;20077;-85
2022/01/05 04:56:53;;;;;;;22.10;3.85;;;;;;;0.27;91.66;100104.72;6193266;23;20094;-85
2022/01/05 04:59:22;;;;;;;16.23;3.33;;;;;;;0.69;90.35;100149.06;6244660;23;20094;-85
2022/01/05 05:01:47;;;;;;;17.48;3.05;;;;;;;0.85;90.58;100165.06;6217212;23;20462;-85
2022/01/05 05:04:13;;;;;;;19.27;3.25;;;;;;;0.96;90.16;100168.38;6217897;23;20000;-86
2022/01/05 05:06:38;;;;;;;17.95;3.30;;;;;;;0.75;89.82;100121.66;6244514;23;20012;-86
2022/01/05 05:09:07;;;;;;;20.02;3.55;;;;;;;0.64;90.37;100114.84;6217648;23;20012;-86
2022/01/05 05:11:33;;;;;;;19.60;3.17;;;;;;;0.98;90.34;100172.56;6192711;23;20008;-86
2022/01/05 05:13:58;;;;;;;19.88;3.47;;;;;;;1.09;90.17;100175.88;6192646;23;20040;-86
2022/01/05 05:16:25;;;;;;;19.90;3.20;;;;;;;0.80;89.83;100130.03;6193014;23;20463;-86
2022/01/05 05:18:54;;;;;;;19.65;3.60;;;;;;;0.56;89.86;100082.00;6243916;23;20004;-86
2022/01/05 05:21:19;;;;;;;20.40;3.65;;;;;;;1.20;90.05;100175.53;6192834;23;20012;-86
2022/01/05 05:23:47;;;;;;;15.00;3.50;;;;;;;0.93;89.83;100137.53;6217529;23;20331;-86
2022/01/05 05:26:13;;;;;;;18.75;3.42;;;;;;;0.53;89.75;100059.13;6217613;23;20008;-86
2022/01/05 05:28:38;;;;;;;19.52;3.45;;;;;;;1.19;89.97;100172.00;6217644;23;20095;-86
2022/01/05 05:31:04;;;;;;;16.65;3.10;;;;;;;1.18;89.52;100170.38;6217547;23;20017;-86
2022/01/05 05:33:29;;;;;;;18.90;3.83;;;;;;;0.79;89.91;100096.31;6192593;23;20019;-86
2022/01/05 05:35:55;;;;;;;21.58;3.33;;;;;;;0.47;90.49;100078.50;6192754;23;20012;-86
2022/01/05 05:38:20;;;;;;;22.27;4.22;;;;;;;0.84;90.21;100128.69;6217640;23;20015;-86
2022/01/05 05:40:46;;;;;;;18.85;3.22;;;;;;;0.86;90.69;100132.00;6193227;23;20058;-86
2022/01/05 05:43:12;;;;;;;18.77;3.67;;;;;;;0.67;90.25;100100.34;6193438;23;20118;-87
2022/01/05 05:45:40;;;;;;;18.52;3.50;;;;;;;0.48;91.21;100072.16;6245184;23;19996;-86
2022/01/05 05:48:06;;;;;;;20.23;3.60;;;;;;;0.37;90.94;100068.00;6218124;23;20074;-86
2022/01/05 05:50:32;;;;;;;16.38;3.95;;;;;;;0.75;91.58;100134.19;6217845;23;20001;-86
2022/01/05 05:52:57;;;;;;;15.93;3.60;;;;;;;0.72;91.22;100113.19;6217789;23;20014;-86
2022/01/05 05:55:23;;;;;;;16.38;3.70;;;;;;;0.51;90.88;100088.66;6217120;23;20035;-86
2022/01/05 05:57:49;;;;;;;17.50;3.50;;;;;;;0.60;91.20;100112.69;6218324;23;20099;-86
2022/01/05 06:00:15;;;;;;;19.10;3.40;;;;;;;0.45;91.08;100086.66;6244539;23;20046;-85
2022/01/05 06:02:41;;;;;;;15.48;3.63;;;;;;;1.05;91.88;100186.91;6217688;23;20004;-86
2022/01/05 06:05:07;;;;;;;20.80;3.40;;;;;;;1.15;91.25;100189.41;6244506;23;20442;-87
2022/01/05 06:07:33;;;;;;;16.40;3.90;;;;;;;0.93;91.77;100172.25;6194447;23;20004;-87
2022/01/05 06:10:02;;;;;;;20.73;3.80;;;;;;;1.13;91.56;100202.09;6219786;23;20000;-87
2022/01/05 06:12:28;;;;;;;20.73;3.72;;;;;;;0.73;92.05;100134.38;6219064;23;20091;-88
2022/01/05 06:14:53;;;;;;;15.02;3.38;;;;;;;0.81;92.39;100136.19;6219339;23;20090;-84
2022/01/05 06:17:20;;;;;;;15.75;3.58;;;;;;;0.47;91.88;100086.50;6221067;23;20047;-94
2022/01/05 06:19:46;;;;;;;19.90;3.40;;;;;;;0.91;91.99;100160.88;6194648;23;20087;-87
2022/01/05 06:22:11;;;;;;;17.52;3.50;;;;;;;1.13;92.13;100198.59;6169630;23;20032;-88
2022/01/05 06:24:39;;;;;;;14.43;3.45;;;;;;;0.69;91.77;100141.91;6194950;23;20004;-87
2022/01/05 06:27:05;;;;;;;18.27;3.75;;;;;;;1.07;92.31;100204.63;6194703;23;20019;-88
2022/01/05 06:29:34;;;;;;;20.20;3.90;;;;;;;0.33;92.89;100101.38;6219374;23;20432;-87
2022/01/05 06:31:59;;;;;;;15.75;3.53;;;;;;;0.88;93.36;100190.59;6245181;23;20019;-90
2022/01/05 06:34:24;;;;;;;20.30;3.90;;;;;;;0.82;93.21;100189.44;6220362;23;20039;-88
2022/01/05 06:36:52;;;;;;;21.83;3.78;;;;;;;0.41;93.15;100125.38;6195031;23;20316;-88
2022/01/05 06:39:18;;;;;;;20.63;3.58;;;;;;;0.46;92.57;100124.91;6194930;23;20081;-87
2022/01/05 06:41:43;;;;;;;22.27;4.00;;;;;;;0.86;93.60;100197.97;6194461;23;20378;-87
2022/01/05 06:44:09;;;;;;;21.63;3.90;;;;;;;0.46;92.98;100132.91;6194127;23;20008;-87
2022/01/05 06:46:34;;;;;;;15.98;3.53;;;;;;;0.83;92.95;100198.31;6193944;23;20008;-87
2022/01/05 06:49:00;;;;;;;22.10;4.10;;;;;;;0.70;93.12;100178.25;6219232;23;20004;-87
2022/01/05 06:51:25;;;;;;;22.13;4.60;;;;;;;1.10;93.44;100249.72;6244308;23;20431;-88
2022/01/05 06:53:53;;;;;;;19.55;3.97;;;;;;;1.03;92.89;100231.69;6169471;23;20474;-88
2022/01/05 06:56:23;;;;;;;19.00;4.10;;;;;;;1.14;93.55;100248.38;6219037;23;20042;-88
2022/01/05 06:58:48;;;;;;;23.80;4.57;;;;;;;1.15;93.35;100250.88;6219052;23;20008;-87
2022/01/05 07:01:14;;;;;;;20.73;4.20;;;;;;;0.90;93.08;100206.47;6193950;23;20431;-87
2022/01/05 07:03:39;;;;;;;19.58;3.97;;;;;;;1.21;93.10;100258.22;6218577;23;20035;-88
2022/01/05 07:06:05;;;;;;;19.00;4.10;;;;;;;1.07;92.51;100244.69;6169325;23;20020;-88
2022/01/05 07:08:31;;;;;;;22.38;4.90;;;;;;;0.99;93.13;100241.03;6218648;23;20027;-88
2022/01/05 07:10:59;;;;;;;21.83;4.00;;;;;;;0.97;93.37;100231.50;6193856;23;20099;-88
2022/01/05 07:13:25;;;;;;;21.20;4.60;;;;;;;0.99;93.42;100240.16;6193842;23;20019;-87
2022/01/05 07:15:53;;;;;;;16.30;3.80;;;;;;;1.03;93.42;100230.81;6193669;23;20008;-87
2022/01/05 07:18:19;;;;;;;15.80;3.45;;;;;;;0.62;93.57;100172.09;6218598;23;20072;-88
2022/01/05 07:20:45;;;;;;;22.42;3.78;;;;;;;0.74;93.73;100184.13;6168714;23;20011;-87
2022/01/05 07:23:10;;;;;;;18.88;3.92;;;;;;;0.69;93.26;100162.41;6243999;23;20008;-88
2022/01/05 07:25:36;;;;;;;17.88;3.88;;;;;;;1.34;93.76;100276.38;6168099;23;20351;-88
2022/01/05 07:28:03;;;;;;;19.38;4.03;;;;;;;1.16;94.06;100251.69;6193613;23;20489;-89
2022/01/05 07:30:29;;;;;;;20.48;4.10;;;;;;;1.39;94.45;100284.75;6218059;23;20213;-88
2022/01/05 07:32:54;;;;;;;18.27;3.78;;;;;;;0.75;93.71;100176.94;6245199;23;20079;-88
2022/01/05 07:35:20;;;;;;;18.00;4.20;;;;;;;0.83;93.89;100188.44;6193285;23;20015;-88
2022/01/05 07:37:48;;;;;;;17.45;3.97;;;;;;;1.54;93.95;100295.59;6193638;23;20091;-88
2022/01/05 07:40:14;;;;;;;18.88;4.30;;;;;;;1.51;93.36;100277.22;6193508;23;20004;-88
2022/01/05 07:42:39;;;;;;;21.70;4.50;;;;;;;1.16;93.54;100215.09;6245526;23;20015;-89
2022/01/05 07:45:07;;;;;;;17.08;3.63;;;;;;;1.69;93.51;100301.06;6218889;23;20011;-89
2022/01/05 07:47:33;;;;;;;22.83;4.45;;;;;;;1.06;93.13;100190.41;6218572;23;20055;-88
2022/01/05 07:49:59;;;;;;;21.30;4.05;;;;;;;1.54;93.49;100268.00;6219059;23;20436;-88
2022/01/05 07:52:25;;;;;;;18.08;3.90;;;;;;;1.46;92.78;100246.63;6218678;23;20424;-88
2022/01/05 07:54:54;;;;;;;18.90;3.90;;;;;;;1.22;92.99;100205.59;6218423;23;20066;-88
2022/01/05 07:57:20;;;;;;;14.82;3.45;;;;;;;1.57;93.30;100257.81;6194009;23;20007;-89
2022/01/05 07:59:45;;;;;;;17.88;3.80;;;;;;;1.51;92.66;100229.09;6245749;23;20004;-89
2022/01/05 08:02:11;;;;;;;15.75;3.80;;;;;;;1.71;92.93;100258.09;6219473;23;20065;-89
2022/01/05 08:04:36;;;;;;;18.05;3.63;;;;;;;2.15;92.41;100316.47;6194458;23;20162;-88
2022/01/05 08:07:02;;;;;;;21.60;3.65;;;;;;;1.87;92.51;100263.38;6245535;23;20000;-89
2022/01/05 08:09:31;;;;;;;20.80;4.03;;;;;;;2.03;92.38;100305.31;6193739;23;20008;-88
2022/01/05 08:11:57;;;;;;;14.98;3.33;;;;;;;1.99;92.33;100279.91;6244577;23;20008;-87
2022/01/05 08:14:23;;;;;;;20.40;3.78;;;;;;;2.11;92.23;100285.69;6218935;23;20015;-88
2022/01/05 08:16:48;;;;;;;19.92;3.33;;;;;;;2.49;91.90;100346.63;6192868;23;20012;-88
2022/01/05 08:19:16;;;;;;;18.50;4.05;;;;;;;2.59;91.69;100348.06;6168321;23;20058;-88
2022/01/05 08:21:42;;;;;;;21.05;4.10;;;;;;;2.05;91.54;100246.25;6244862;23;20367;-88
2022/01/05 08:24:07;;;;;;;26.98;4.45;;;;;;;2.11;90.07;100250.91;6193474;23;20004;-87
2022/01/05 08:26:33;;;;;;;15.88;3.20;;;;;;;2.18;90.01;100251.06;6245197;23;20004;-88
2022/01/05 08:29:01;;;;;;;16.83;3.58;;;;;;;2.76;88.73;100322.03;6244277;23;20024;-88
2022/01/05 08:31:27;;;;;;;21.13;3.60;;;;;;;2.39;89.29;100250.44;6193760;23;20347;-85
2022/01/05 08:33:56;;;;;;;19.65;3.63;;;;;;;2.76;89.00;100313.16;6244794;23;20007;-86
2022/01/05 08:36:22;;;;;;;17.35;3.10;;;;;;;2.53;88.42;100267.59;6218505;23;20008;-86
2022/01/05 08:38:50;;;;;;;21.45;3.35;;;;;;;2.54;87.63;100255.88;6217633;23;20054;-86
2022/01/05 08:41:16;;;;;;;17.27;3.03;;;;;;;2.59;87.64;100248.16;6244373;23;20014;-86
2022/01/05 08:43:41;;;;;;;15.15;3.33;;;;;;;3.27;87.96;100356.34;6218064;23;20383;-86
2022/01/05 08:46:07;;;;;;;19.30;3.80;;;;;;;3.34;87.31;100356.47;6192194;23;20004;-86
2022/01/05 08:48:32;;;;;;;17.77;2.75;;;;;;;3.09;87.17;100310.25;6217723;23;20408;-86
2022/01/05 08:51:01;;;;;;;17.92;3.53;;;;;;;3.44;87.21;100345.47;6193235;23;20008;-87
2022/01/05 08:53:26;;;;;;;16.90;3.38;;;;;;;2.86;86.56;100265.50;6217865;23;20355;-83
2022/01/05 08:55:52;;;;;;;19.80;3.40;;;;;;;3.46;86.32;100363.06;6218462;23;20004;-85
2022/01/05 08:58:20;;;;;;;15.13;3.10;;;;;;;3.44;86.62;100348.16;6218420;23;20075;-86
2022/01/05 09:00:45;;;;;;;21.13;3.58;;;;;;;3.41;86.13;100351.19;6244696;22;20004;-87
2022/01/05 09:03:14;;;;;;;16.20;3.15;;;;;;;3.04;86.31;100309.94;6243935;23;20067;-87
2022/01/05 09:05:43;;;;;;;19.17;3.90;;;;;;;3.18;86.25;100337.84;6217000;23;20069;-87
2022/01/05 09:08:09;;;;;;;20.80;3.72;;;;;;;3.41;85.95;100359.25;6192676;23;20012;-87
2022/01/05 09:10:35;;;;;;;19.10;3.53;;;;;;;3.61;85.52;100364.97;6218464;23;20015;-88
2022/01/05 09:13:01;;;;;;;13.52;3.13;;;;;;;3.58;85.60;100357.28;6218042;23;20012;-87
2022/01/05 09:15:34;;;;;;;18.00;3.20;;;;;;;3.20;85.66;100277.63;6192847;23;20038;-87
2022/01/05 09:18:00;;;;;;;16.38;3.55;;;;;;;3.78;83.45;100379.03;6218647;23;20050;-88
2022/01/05 09:20:25;;;;;;;18.98;3.60;;;;;;;3.70;83.59;100350.44;6244036;23;20004;-87
2022/01/05 09:22:51;;;;;;;14.10;2.78;;;;;;;3.88;83.16;100368.88;6192595;23;20008;-88
2022/01/05 09:25:18;;;;;;;15.23;3.13;;;;;;;4.00;83.23;100371.94;6218048;23;20371;-88
2022/01/05 09:27:47;;;;;;;21.23;3.80;;;;;;;4.11;82.64;100374.19;6217797;23;20070;-88
2022/01/05 09:30:15;;;;;;;16.33;3.08;;;;;;;3.57;82.71;100264.38;6168672;23;20020;-88
2022/01/05 09:32:40;;;;;;;17.67;3.17;;;;;;;4.28;82.14;100393.66;6217952;23;20043;-87
2022/01/05 09:35:08;;;;;;;20.40;3.25;;;;;;;4.16;83.08;100379.84;6244715;23;20008;-88
2022/01/05 09:37:48;;;;;;;23.80;3.90;;;;;;;3.82;84.63;100362.41;6217017;23;20107;-87
2022/01/05 09:43:21;;;;;;;15.90;3.45;;;;;;;3.75;88.72;100419.66;6246449;23;20505;-87
2022/01/05 09:45:58;;;;;;;23.98;3.85;;;;;;;3.73;88.51;100409.09;6218911;23;20012;-86
2022/01/05 09:48:43;;;;;;;24.65;3.60;;;;;;;3.45;89.78;100406.16;6219323;23;20008;-87
2022/01/05 09:51:10;;;;;;;16.50;3.30;;;;;;;3.50;89.34;100418.03;6219383;23;20066;-87
2022/01/05 09:53:37;;;;;;;21.02;3.28;;;;;;;3.14;89.70;100359.63;6169560;23;20008;-88
2022/01/05 09:56:05;;;;;;;19.50;3.92;;;;;;;3.13;91.04;100370.50;6218857;23;20045;-87
2022/01/05 09:58:32;;;;;;;13.88;2.85;;;;;;;3.24;92.22;100423.72;6219393;23;20089;-87
2022/01/05 10:00:59;;;;;;;16.95;3.08;;;;;;;2.95;91.37;100371.66;6194535;23;20091;-88
2022/01/05 10:03:24;;;;;;;17.00;2.97;;;;;;;3.30;91.91;100441.78;6192873;23;20469;-87
2022/01/05 10:05:50;;;;;;;22.67;4.05;;;;;;;3.29;91.75;100458.06;6217578;23;20079;-87
2022/01/05 10:08:15;;;;;;;15.20;3.42;;;;;;;3.04;91.84;100388.53;6189827;23;20091;-87
2022/01/05 10:10:42;;;;;;;20.55;3.60;;;;;;;2.99;90.77;100367.59;6244745;23;20004;-87
2022/01/05 10:13:08;;;;;;;18.50;3.45;;;;;;;2.85;89.76;100328.19;6218449;23;20494;-87
2022/01/05 10:15:34;;;;;;;20.75;3.35;;;;;;;3.12;90.80;100360.81;6245075;23;20012;-87
2022/01/05 10:18:13;;;;;;;14.48;3.22;;;;;;;3.21;89.86;100380.38;6218643;23;20040;-87
2022/01/05 10:20:56;;;;;;;16.92;3.45;;;;;;;3.57;90.57;100430.72;6245201;23;20011;-87
2022/01/05 10:23:42;;;;;;;25.45;4.07;;;;;;;3.64;91.89;100423.63;6218591;23;20027;-87
2022/01/05 10:26:39;;;;;;;20.65;3.50;;;;;;;3.76;90.63;100443.63;6218696;23;20004;-87
2022/01/05 10:29:06;;;;;;;20.63;3.65;;;;;;;3.88;90.24;100462.81;6195036;23;20088;-87
2022/01/05 10:31:38;;;;;;;18.42;3.60;;;;;;;3.93;87.98;100409.44;6244947;23;20015;-87
2022/01/05 10:34:20;;;;;;;21.05;4.28;;;;;;;4.32;87.05;100443.25;6245260;23;20083;-87
2022/01/05 10:36:48;;;;;;;17.60;3.67;;;;;;;4.62;86.90;100461.25;6218332;23;20400;-87
2022/01/05 10:39:14;;;;;;;19.77;3.30;;;;;;;4.72;84.40;100448.34;6218309;23;20399;-86
2022/01/05 10:41:42;;;;;;;13.57;3.10;;;;;;;4.53;83.23;100396.88;6218220;23;20040;-87
2022/01/05 10:44:15;;;;;;;15.20;3.38;;;;;;;4.86;82.59;100434.06;6217696;23;20430;-86
2022/01/05 10:46:43;;;;;;;23.30;3.28;;;;;;;4.71;82.14;100428.72;6245327;23;20000;-86
2022/01/05 10:49:09;;;;;;;18.75;2.95;;;;;;;4.86;81.15;100449.38;6217963;23;20008;-87
2022/01/05 10:51:36;;;;;;;21.00;3.70;;;;;;;4.89;81.55;100463.28;6245064;23;20087;-87
2022/01/05 10:54:11;;;;;;;15.75;3.08;;;;;;;5.03;81.16;100475.00;6245084;23;20435;-87
2022/01/05 10:56:37;;;;;;;16.70;3.00;;;;;;;4.82;80.83;100432.78;6244731;23;20008;-86
2022/01/05 10:59:03;;;;;;;24.65;4.38;;;;;;;4.97;80.43;100445.38;6218510;23;20026;-87
2022/01/05 11:01:30;;;;;;;19.17;3.88;;;;;;;4.73;79.83;100418.59;6217981;23;20016;-88
2022/01/05 11:03:56;;;;;;;18.38;3.38;;;;;;;5.08;79.13;100426.88;6218467;23;20007;-87
2022/01/05 11:06:22;;;;;;;16.00;3.00;;;;;;;5.57;78.39;100500.66;6218064;23;20004;-87
2022/01/05 11:09:04;;;;;;;20.63;3.15;;;;;;;5.24;78.12;100441.97;6218091;23;20066;-87
2022/01/05 11:11:32;;;;;;;16.80;3.25;;;;;;;5.44;78.44;100506.75;6245211;23;20015;-86
2022/01/05 11:13:58;;;;;;;17.33;3.33;;;;;;;5.12;78.46;100437.25;6245119;23;20395;-87
2022/01/05 11:16:34;;;;;;;15.60;2.88;;;;;;;5.53;78.52;100488.63;6244718;23;20413;-87
2022/01/05 11:19:27;;;;;;;22.23;3.42;;;;;;;5.59;77.87;100522.00;6217513;23;20035;-87
2022/01/05 11:22:10;;;;;;;15.30;3.35;;;;;;;5.48;78.58;100525.19;6218411;23;20000;-87
2022/01/05 11:24:41;;;;;;;18.17;3.15;;;;;;;5.12;78.76;100485.66;6217926;23;20012;-87
2022/01/05 11:27:12;;;;;;;15.25;3.08;;;;;;;5.25;78.46;100507.34;6245549;23;20060;-87
2022/01/05 11:29:39;;;;;;;15.43;3.28;;;;;;;5.21;78.46;100476.47;6244647;23;20008;-87
2022/01/05 11:32:09;;;;;;;19.45;3.50;;;;;;;5.37;78.57;100500.44;6218240;23;20008;-87